createdAt,value
2022-07-28T00:01:10.217Z,2.13
2022-07-28T00:03:37.949Z,2.70
2022-07-28T00:06:07.138Z,2.20
2022-07-28T00:08:34.829Z,2.37
2022-07-28T00:11:02.576Z,2.53
2022-07-28T00:13:30.272Z,2.50
2022-07-28T00:15:57.996Z,2.23
2022-07-28T00:18:25.753Z,2.50
2022-07-28T00:20:53.432Z,2.60
2022-07-28T00:23:22.470Z,2.43
2022-07-28T00:25:50.350Z,2.00
2022-07-28T00:28:18.093Z,2.10
2022-07-28T00:30:45.859Z,2.70
2022-07-28T00:33:13.654Z,2.00
2022-07-28T00:35:41.529Z,2.20
2022-07-28T00:38:16.451Z,2.80
2022-07-28T00:41:03.473Z,2.10
2022-07-28T00:43:31.245Z,2.20
2022-07-28T00:45:59.015Z,2.27
2022-07-28T00:48:27.008Z,2.40
2022-07-28T00:50:55.075Z,2.40
2022-07-28T00:53:23.858Z,2.17
2022-07-28T00:56:03.686Z,2.30
2022-07-28T00:58:34.536Z,2.47
2022-07-28T01:01:02.277Z,2.33
2022-07-28T01:03:30.484Z,2.40
2022-07-28T01:06:07.000Z,2.80
2022-07-28T01:08:42.645Z,2.67
2022-07-28T01:11:19.019Z,2.23
2022-07-28T01:13:55.541Z,2.20
2022-07-28T01:16:24.242Z,2.67
2022-07-28T01:19:02.867Z,2.57
2022-07-28T01:21:36.205Z,3.10
2022-07-28T01:24:15.540Z,2.37
2022-07-28T01:26:54.671Z,2.50
2022-07-28T01:29:37.745Z,2.23
2022-07-28T01:32:11.532Z,2.57
2022-07-28T01:34:46.350Z,2.20
2022-07-28T01:37:18.378Z,2.17
2022-07-28T01:39:48.245Z,2.30
2022-07-28T01:42:18.513Z,2.43
2022-07-28T01:44:49.862Z,3.10
2022-07-28T01:47:21.141Z,2.30
2022-07-28T01:49:51.149Z,2.37
2022-07-28T01:52:21.113Z,2.97
2022-07-28T01:54:51.947Z,2.50
2022-07-28T01:57:21.378Z,2.50
2022-07-28T01:59:50.642Z,2.43
2022-07-28T02:02:21.689Z,2.47
2022-07-28T02:04:51.266Z,2.57
2022-07-28T02:07:21.644Z,2.30
2022-07-28T02:09:50.795Z,2.70
2022-07-28T02:12:19.660Z,2.63
2022-07-28T02:14:49.661Z,2.17
2022-07-28T02:17:21.540Z,2.60
2022-07-28T02:19:50.083Z,2.83
2022-07-28T02:22:18.164Z,2.33
2022-07-28T02:24:48.168Z,2.30
2022-07-28T02:27:20.594Z,2.50
2022-07-28T02:29:51.943Z,2.60
2022-07-28T02:32:28.793Z,2.67
2022-07-28T02:35:02.372Z,2.30
2022-07-28T02:37:36.208Z,2.40
2022-07-28T02:40:05.665Z,2.20
2022-07-28T02:42:36.761Z,3.17
2022-07-28T02:45:07.988Z,2.47
2022-07-28T02:47:45.126Z,2.50
2022-07-28T02:50:16.361Z,2.50
2022-07-28T02:52:46.829Z,2.97
2022-07-28T02:55:18.064Z,2.47
2022-07-28T02:57:47.203Z,2.40
2022-07-28T03:00:16.532Z,2.97
2022-07-28T03:02:47.009Z,2.73
2022-07-28T03:05:16.494Z,2.40
2022-07-28T03:07:50.533Z,2.23
2022-07-28T03:10:34.316Z,2.70
2022-07-28T03:13:03.058Z,2.70
2022-07-28T03:15:31.256Z,2.73
2022-07-28T03:18:00.564Z,2.30
2022-07-28T03:20:28.434Z,2.77
2022-07-28T03:22:56.409Z,2.63
2022-07-28T03:25:27.772Z,3.00
2022-07-28T03:27:58.104Z,2.40
2022-07-28T03:30:28.911Z,2.80
2022-07-28T03:32:59.316Z,2.90
2022-07-28T03:35:29.627Z,3.30
2022-07-28T03:38:01.042Z,2.93
2022-07-28T03:40:30.896Z,2.53
2022-07-28T03:43:00.681Z,2.87
2022-07-28T03:45:28.857Z,2.50
2022-07-28T03:47:58.942Z,2.63
2022-07-28T03:50:30.767Z,2.67
2022-07-28T03:52:59.619Z,3.00
2022-07-28T03:55:27.966Z,2.73
2022-07-28T03:57:57.078Z,2.57
2022-07-28T04:00:26.217Z,2.93
2022-07-28T04:02:54.096Z,2.53
2022-07-28T04:05:22.065Z,2.57
2022-07-28T04:07:51.104Z,2.60
2022-07-28T04:10:19.105Z,2.63
2022-07-28T04:12:51.353Z,2.60
2022-07-28T04:15:19.979Z,2.97
2022-07-28T04:17:49.263Z,3.20
2022-07-28T04:20:17.798Z,3.13
2022-07-28T04:22:45.698Z,3.10
2022-07-28T04:25:15.949Z,2.57
2022-07-28T04:27:44.533Z,2.73
2022-07-28T04:30:14.552Z,3.20
2022-07-28T04:32:42.372Z,3.30
2022-07-28T04:35:17.328Z,2.70
2022-07-28T04:37:46.386Z,2.60
2022-07-28T04:40:16.550Z,2.43
2022-07-28T04:42:44.687Z,2.70
2022-07-28T04:45:12.781Z,2.40
2022-07-28T04:47:41.043Z,3.10
2022-07-28T04:50:10.861Z,3.03
2022-07-28T04:52:39.954Z,2.60
2022-07-28T04:55:08.903Z,2.57
2022-07-28T04:57:38.362Z,2.10
2022-07-28T05:00:12.858Z,2.80
2022-07-28T05:02:41.112Z,3.00
2022-07-28T05:05:09.865Z,3.67
2022-07-28T05:07:38.254Z,2.93
2022-07-28T05:10:07.714Z,2.90
2022-07-28T05:12:35.558Z,3.13
2022-07-28T05:15:05.825Z,2.80
2022-07-28T05:17:33.624Z,3.23
2022-07-28T05:20:03.339Z,3.40
2022-07-28T05:22:42.376Z,3.30
2022-07-28T05:25:14.958Z,3.07
2022-07-28T05:27:42.648Z,3.17
2022-07-28T05:30:14.218Z,3.73
2022-07-28T05:32:42.369Z,3.60
2022-07-28T05:35:10.967Z,3.67
2022-07-28T05:37:39.093Z,3.57
2022-07-28T05:40:11.852Z,3.40
2022-07-28T05:42:40.584Z,3.90
2022-07-28T05:45:15.788Z,3.60
2022-07-28T05:47:48.374Z,3.80
2022-07-28T05:50:17.648Z,3.27
2022-07-28T05:52:46.271Z,3.37
2022-07-28T05:55:14.348Z,3.20
2022-07-28T05:57:42.606Z,3.73
2022-07-28T06:00:12.350Z,3.77
2022-07-28T06:02:40.229Z,3.43
2022-07-28T06:05:10.447Z,3.10
2022-07-28T06:07:43.552Z,3.80
2022-07-28T06:10:12.973Z,3.37
2022-07-28T06:12:43.019Z,4.33
2022-07-28T06:15:15.172Z,3.90
2022-07-28T06:17:43.194Z,3.50
2022-07-28T06:20:13.800Z,4.00
2022-07-28T06:22:42.979Z,4.23
2022-07-28T06:25:15.307Z,4.33
2022-07-28T06:27:43.601Z,4.33
2022-07-28T06:30:12.088Z,4.50
2022-07-28T06:32:39.823Z,4.90
2022-07-28T06:35:08.673Z,4.20
2022-07-28T06:37:37.767Z,4.40
2022-07-28T06:40:07.312Z,4.97
2022-07-28T06:42:35.067Z,4.30
2022-07-28T06:45:04.329Z,5.43
2022-07-28T06:47:32.320Z,5.40
2022-07-28T06:50:00.499Z,4.50
2022-07-28T06:52:28.485Z,5.33
2022-07-28T06:54:59.001Z,4.63
2022-07-28T06:57:33.178Z,4.90
2022-07-28T07:00:02.870Z,4.60
2022-07-28T07:02:31.034Z,6.00
2022-07-28T07:04:59.342Z,5.60
2022-07-28T07:07:27.078Z,5.53
2022-07-28T07:09:55.090Z,6.10
2022-07-28T07:12:24.200Z,6.63
2022-07-28T07:14:52.090Z,6.00
2022-07-28T07:17:19.919Z,6.50
2022-07-28T07:19:48.061Z,6.47
2022-07-28T07:22:15.826Z,6.23
2022-07-28T07:24:43.592Z,6.37
2022-07-28T07:27:11.564Z,6.77
2022-07-28T07:29:41.030Z,6.70
2022-07-28T07:32:10.920Z,6.50
2022-07-28T07:34:40.378Z,5.87
2022-07-28T07:37:13.496Z,6.03
2022-07-28T07:39:42.411Z,6.13
2022-07-28T07:42:10.540Z,6.00
2022-07-28T07:44:38.459Z,6.37
2022-07-28T07:47:09.705Z,6.23
2022-07-28T07:49:45.305Z,6.10
2022-07-28T07:52:14.433Z,6.10
2022-07-28T07:54:42.983Z,5.80
2022-07-28T07:57:10.715Z,6.20
2022-07-28T07:59:38.771Z,5.77
2022-07-28T08:02:08.295Z,6.73
2022-07-28T08:04:37.568Z,6.00
2022-07-28T08:07:06.748Z,5.80
2022-07-28T08:09:35.274Z,6.00
2022-07-28T08:12:03.410Z,6.80
2022-07-28T08:14:31.390Z,6.60
2022-07-28T08:16:59.564Z,6.50
2022-07-28T08:19:28.790Z,6.47
2022-07-28T08:21:56.527Z,6.70
2022-07-28T08:24:32.816Z,5.90
2022-07-28T08:27:01.715Z,6.50
2022-07-28T08:29:29.454Z,6.47
2022-07-28T08:31:57.267Z,5.87
2022-07-28T08:34:31.397Z,6.10
2022-07-28T08:37:04.133Z,5.90
2022-07-28T08:39:32.513Z,6.50
2022-07-28T08:42:05.458Z,6.60
2022-07-28T08:44:40.854Z,6.00
2022-07-28T08:47:11.489Z,5.93
2022-07-28T08:49:41.780Z,6.13
2022-07-28T08:52:14.073Z,7.00
2022-07-28T08:54:44.634Z,7.07
2022-07-28T08:57:17.568Z,6.60
2022-07-28T08:59:48.759Z,6.30
2022-07-28T09:02:17.204Z,6.70
2022-07-28T09:04:46.355Z,5.70
2022-07-28T09:07:17.081Z,6.10
2022-07-28T09:09:45.501Z,6.67
2022-07-28T09:12:13.335Z,6.70
2022-07-28T09:14:41.150Z,6.73
2022-07-28T09:17:09.667Z,7.40
2022-07-28T09:19:37.626Z,7.50
2022-07-28T09:22:05.595Z,6.73
2022-07-28T09:24:36.381Z,7.00
2022-07-28T09:27:07.578Z,6.47
2022-07-28T09:29:36.147Z,6.90
2022-07-28T09:32:04.520Z,7.40
2022-07-28T09:34:41.549Z,6.80
2022-07-28T09:37:17.188Z,7.10
2022-07-28T09:39:49.270Z,5.93
2022-07-28T09:42:18.347Z,7.57
2022-07-28T09:45:05.796Z,6.97
2022-07-28T09:47:35.151Z,6.30
2022-07-28T09:50:03.586Z,6.57
2022-07-28T09:52:33.413Z,6.33
2022-07-28T09:55:04.457Z,5.83
2022-07-28T09:57:34.086Z,6.97
2022-07-28T10:00:07.272Z,6.80
2022-07-28T10:02:38.170Z,6.73
2022-07-28T10:05:07.984Z,7.00
2022-07-28T10:07:49.515Z,6.83
2022-07-28T10:10:22.572Z,6.33
2022-07-28T10:12:50.380Z,6.80
2022-07-28T10:15:51.140Z,6.73
2022-07-28T10:18:19.163Z,6.53
2022-07-28T10:20:47.492Z,6.43
2022-07-28T10:23:18.056Z,5.93
2022-07-28T10:25:47.479Z,6.60
2022-07-28T10:28:21.673Z,6.83
2022-07-28T10:30:55.552Z,6.60
2022-07-28T10:33:26.216Z,6.00
2022-07-28T10:35:55.503Z,6.80
2022-07-28T10:38:27.191Z,6.50
2022-07-28T10:40:59.470Z,6.60
2022-07-28T10:43:29.111Z,6.10
2022-07-28T10:46:06.761Z,6.37
2022-07-28T10:48:37.808Z,5.97
2022-07-28T10:51:06.252Z,6.40
2022-07-28T10:53:41.702Z,5.50
2022-07-28T10:56:16.875Z,5.77
2022-07-28T10:58:51.991Z,6.10
2022-07-28T11:01:51.591Z,6.40
2022-07-28T11:04:53.089Z,6.07
2022-07-28T11:07:22.329Z,5.60
2022-07-28T11:09:50.672Z,5.50
2022-07-28T11:12:46.556Z,5.80
2022-07-28T11:15:27.175Z,6.30
2022-07-28T11:18:06.950Z,6.43
2022-07-28T11:21:08.656Z,5.70
2022-07-28T11:23:56.045Z,6.10
2022-07-28T11:26:39.659Z,5.70
2022-07-28T11:29:23.171Z,5.63
2022-07-28T11:32:05.962Z,5.57
2022-07-28T11:35:06.629Z,5.30
2022-07-28T11:38:10.450Z,5.30
2022-07-28T11:40:40.957Z,5.23
2022-07-28T11:43:36.331Z,5.90
2022-07-28T11:46:38.517Z,5.50
2022-07-28T11:49:24.922Z,5.50
2022-07-28T11:52:15.179Z,5.57
2022-07-28T11:54:50.090Z,5.00
2022-07-28T11:57:19.582Z,4.50
2022-07-28T11:59:53.891Z,5.03
2022-07-28T12:02:25.901Z,4.93
2022-07-28T12:05:15.142Z,5.17
2022-07-28T12:07:47.026Z,5.90
2022-07-28T12:10:52.245Z,5.60
2022-07-28T12:13:14.899Z,5.27
2022-07-28T12:15:42.738Z,4.40
2022-07-28T12:18:14.490Z,4.97
2022-07-28T12:20:48.661Z,4.30
2022-07-28T12:23:16.997Z,4.77
2022-07-28T12:25:47.162Z,5.07
2022-07-28T12:28:20.689Z,4.40
2022-07-28T12:30:49.532Z,5.10
2022-07-28T12:33:27.501Z,4.93
2022-07-28T12:35:59.681Z,4.80
2022-07-28T12:38:29.076Z,5.27
2022-07-28T12:40:57.167Z,4.57
2022-07-28T12:43:28.021Z,3.90
2022-07-28T12:45:56.784Z,4.33
2022-07-28T12:48:26.651Z,5.03
2022-07-28T12:50:54.507Z,4.60
2022-07-28T12:53:23.186Z,4.50
2022-07-28T12:56:02.264Z,4.40
2022-07-28T12:58:30.495Z,4.60
2022-07-28T13:00:58.632Z,5.07
2022-07-28T13:03:29.003Z,5.13
2022-07-28T13:06:04.137Z,4.50
2022-07-28T13:08:44.293Z,4.97
2022-07-28T13:11:41.977Z,4.57
2022-07-28T13:14:02.102Z,5.40
2022-07-28T13:16:30.700Z,5.00
2022-07-28T13:19:03.973Z,4.63
2022-07-28T13:21:41.133Z,4.80
2022-07-28T13:24:26.946Z,4.80
2022-07-28T13:26:54.882Z,4.80
2022-07-28T13:29:22.897Z,4.80
2022-07-28T13:31:51.126Z,4.73
2022-07-28T13:34:20.345Z,4.90
2022-07-28T13:36:48.147Z,4.70
2022-07-28T13:39:15.892Z,4.50
2022-07-28T13:41:58.304Z,5.00
2022-07-28T13:44:27.247Z,5.67
2022-07-28T13:46:55.523Z,4.60
2022-07-28T13:49:28.447Z,5.00
2022-07-28T13:51:57.316Z,4.40
2022-07-28T13:54:25.753Z,4.70
2022-07-28T13:57:12.253Z,4.30
2022-07-28T13:59:41.855Z,4.40
2022-07-28T14:02:15.597Z,4.80
2022-07-28T14:04:46.102Z,4.70
2022-07-28T14:07:20.469Z,4.50
2022-07-28T14:09:50.178Z,4.80
2022-07-28T14:12:18.130Z,4.23
2022-07-28T14:14:48.047Z,4.50
2022-07-28T14:20:06.789Z,4.77
2022-07-28T14:22:34.880Z,5.27
2022-07-28T14:25:03.011Z,4.67
2022-07-28T14:27:30.852Z,4.40
2022-07-28T14:29:58.623Z,4.63
2022-07-28T14:32:26.506Z,4.13
2022-07-28T14:34:54.734Z,4.40
2022-07-28T14:37:23.795Z,4.87
2022-07-28T14:39:51.929Z,4.77
2022-07-28T14:42:19.762Z,5.30
2022-07-28T14:44:47.635Z,4.73
2022-07-28T14:47:17.592Z,4.77
2022-07-28T14:49:57.083Z,4.57
2022-07-28T14:52:29.656Z,4.40
2022-07-28T14:54:58.185Z,4.80
2022-07-28T14:57:48.284Z,4.60
2022-07-28T15:00:16.467Z,5.00
2022-07-28T15:02:45.711Z,4.93
2022-07-28T15:05:13.823Z,4.50
2022-07-28T15:07:43.043Z,4.40
2022-07-28T15:10:11.608Z,4.63
2022-07-28T15:12:39.436Z,4.60
2022-07-28T15:15:08.216Z,4.30
2022-07-28T15:17:37.454Z,4.43
2022-07-28T15:20:07.343Z,4.40
2022-07-28T15:22:35.615Z,4.63
2022-07-28T15:25:05.498Z,4.70
2022-07-28T15:27:34.004Z,5.13
2022-07-28T15:30:03.176Z,5.07
2022-07-28T15:32:31.437Z,4.87
2022-07-28T15:34:59.757Z,5.67
2022-07-28T15:37:27.864Z,5.40
2022-07-28T15:39:55.651Z,4.63
2022-07-28T15:42:25.093Z,5.40
2022-07-28T15:44:53.153Z,4.47
2022-07-28T15:47:21.682Z,5.07
2022-07-28T15:49:49.454Z,4.60
2022-07-28T15:52:17.167Z,4.47
2022-07-28T15:54:45.052Z,4.47
2022-07-28T15:57:13.881Z,4.60
2022-07-28T15:59:49.589Z,4.23
2022-07-28T16:02:19.139Z,4.60
2022-07-28T16:04:54.163Z,4.50
2022-07-28T16:07:24.520Z,4.53
2022-07-28T16:09:54.601Z,4.83
2022-07-28T16:12:25.160Z,4.53
2022-07-28T16:14:54.891Z,5.37
2022-07-28T16:17:22.709Z,4.83
2022-07-28T16:19:51.169Z,4.83
2022-07-28T16:22:19.231Z,4.60
2022-07-28T16:24:47.584Z,4.90
2022-07-28T16:27:15.651Z,4.90
2022-07-28T16:29:43.440Z,4.47
2022-07-28T16:32:12.883Z,4.70
2022-07-28T16:34:40.638Z,4.57
2022-07-28T16:37:08.427Z,4.70
2022-07-28T16:39:36.246Z,5.23
2022-07-28T16:42:04.069Z,5.00
2022-07-28T16:44:31.877Z,4.77
2022-07-28T16:46:59.699Z,4.60
2022-07-28T16:49:28.909Z,4.80
2022-07-28T16:51:57.493Z,4.67
2022-07-28T16:54:25.313Z,4.90
2022-07-28T16:56:55.322Z,4.67
2022-07-28T16:59:23.111Z,4.27
2022-07-28T17:01:52.084Z,4.63
2022-07-28T17:04:21.011Z,5.10
2022-07-28T17:06:50.451Z,4.60
2022-07-28T17:09:18.219Z,4.60
2022-07-28T17:11:45.974Z,5.50
2022-07-28T17:14:13.995Z,4.80
2022-07-28T17:16:41.893Z,4.50
2022-07-28T17:19:09.659Z,4.67
2022-07-28T17:21:37.453Z,4.50
2022-07-28T17:24:07.351Z,5.13
2022-07-28T17:29:23.526Z,4.40
2022-07-28T17:31:51.603Z,4.30
2022-07-28T17:34:19.575Z,4.50
2022-07-28T17:36:48.137Z,4.70
2022-07-28T17:39:17.419Z,4.80
2022-07-28T17:41:45.199Z,4.80
2022-07-28T17:44:13.241Z,4.70
2022-07-28T17:46:41.617Z,4.87
2022-07-28T17:49:10.596Z,5.40
2022-07-28T17:51:38.505Z,4.77
2022-07-28T17:54:06.622Z,4.40
2022-07-28T17:56:37.576Z,5.37
2022-07-28T17:59:08.010Z,4.90
2022-07-28T18:01:36.150Z,4.80
2022-07-28T18:04:04.025Z,5.40
2022-07-28T18:06:34.850Z,5.17
2022-07-28T18:09:06.148Z,4.77
2022-07-28T18:11:58.016Z,4.77
2022-07-28T18:14:25.949Z,4.00
2022-07-28T18:16:53.687Z,4.13
2022-07-28T18:19:21.500Z,5.00
2022-07-28T18:21:49.494Z,4.57
2022-07-28T18:24:18.094Z,4.73
2022-07-28T18:26:47.537Z,4.70
2022-07-28T18:29:15.483Z,4.57
2022-07-28T18:31:46.368Z,5.17
2022-07-28T18:34:15.446Z,4.60
2022-07-28T18:36:43.729Z,4.73
2022-07-28T18:39:12.326Z,5.20
2022-07-28T18:41:46.253Z,4.70
2022-07-28T18:44:18.093Z,5.00
2022-07-28T18:46:46.689Z,4.40
2022-07-28T18:49:14.572Z,4.43
2022-07-28T18:51:45.521Z,4.37
2022-07-28T18:54:17.485Z,4.60
2022-07-28T18:56:47.948Z,4.53
2022-07-28T18:59:17.287Z,4.70
2022-07-28T19:01:45.146Z,5.27
2022-07-28T19:04:13.384Z,5.00
2022-07-28T19:06:41.429Z,5.50
2022-07-28T19:09:09.347Z,4.33
2022-07-28T19:11:41.195Z,4.37
2022-07-28T19:14:12.243Z,5.07
2022-07-28T19:16:41.690Z,4.90
2022-07-28T19:19:09.628Z,4.47
2022-07-28T19:21:37.371Z,5.23
2022-07-28T19:24:10.805Z,5.10
2022-07-28T19:26:41.037Z,4.63
2022-07-28T19:29:09.279Z,5.07
2022-07-28T19:31:37.136Z,5.03
2022-07-28T19:34:10.080Z,5.30
2022-07-28T19:36:38.167Z,5.50
2022-07-28T19:39:05.959Z,5.20
2022-07-28T19:41:33.812Z,4.63
2022-07-28T19:44:01.727Z,5.50
2022-07-28T19:46:29.830Z,5.27
2022-07-28T19:48:57.728Z,5.10
2022-07-28T19:51:27.143Z,5.10
2022-07-28T19:53:56.883Z,4.93
2022-07-28T19:56:30.532Z,4.97
2022-07-28T19:59:00.610Z,5.10
2022-07-28T20:01:28.674Z,4.67
2022-07-28T20:04:01.282Z,4.93
2022-07-28T20:06:35.624Z,4.90
2022-07-28T20:09:04.649Z,4.87
2022-07-28T20:11:33.713Z,5.00
2022-07-28T20:14:02.056Z,5.20
2022-07-28T20:16:30.180Z,4.50
2022-07-28T20:18:58.045Z,5.43
2022-07-28T20:21:26.463Z,4.87
2022-07-28T20:23:57.476Z,5.10
2022-07-28T20:26:26.134Z,5.30
2022-07-28T20:28:53.955Z,4.53
2022-07-28T20:31:21.896Z,5.47
2022-07-28T20:33:50.181Z,5.70
2022-07-28T20:36:18.776Z,5.77
2022-07-28T20:38:46.515Z,6.70
2022-07-28T20:41:16.295Z,6.70
2022-07-28T20:43:44.027Z,7.07
2022-07-28T20:46:11.866Z,7.83
2022-07-28T20:48:40.116Z,6.47
2022-07-28T20:51:08.107Z,6.50
2022-07-28T20:53:37.447Z,7.10
2022-07-28T20:56:05.926Z,7.23
2022-07-28T20:58:34.999Z,6.80
2022-07-28T21:01:02.908Z,7.50
2022-07-28T21:03:30.748Z,7.07
2022-07-28T21:05:58.512Z,6.70
2022-07-28T21:08:26.514Z,6.23
2022-07-28T21:10:55.293Z,6.37
2022-07-28T21:13:23.098Z,6.63
2022-07-28T21:15:52.834Z,6.53
2022-07-28T21:18:20.617Z,6.30
2022-07-28T21:20:48.371Z,6.07
2022-07-28T21:23:17.435Z,6.03
2022-07-28T21:25:45.553Z,6.47
2022-07-28T21:28:31.412Z,6.90
2022-07-28T21:31:01.501Z,7.17
2022-07-28T21:33:29.431Z,6.90
2022-07-28T21:35:57.135Z,7.20
2022-07-28T21:38:24.879Z,7.30
2022-07-28T21:40:52.836Z,6.57
2022-07-28T21:43:20.596Z,7.80
2022-07-28T21:45:48.930Z,6.97
2022-07-28T21:48:20.070Z,7.00
2022-07-28T21:50:47.863Z,7.13
2022-07-28T21:53:17.399Z,7.30
2022-07-28T21:55:45.698Z,7.80
2022-07-28T21:58:14.195Z,7.63
2022-07-28T22:00:42.121Z,7.73
2022-07-28T22:03:09.914Z,6.90
2022-07-28T22:05:39.019Z,7.10
2022-07-28T22:08:08.582Z,7.57
2022-07-28T22:10:36.413Z,7.17
2022-07-28T22:13:04.296Z,7.47
2022-07-28T22:15:32.131Z,6.97
2022-07-28T22:17:59.896Z,7.20
2022-07-28T22:20:27.681Z,7.43
2022-07-28T22:22:56.904Z,6.40
2022-07-28T22:25:24.697Z,7.30
2022-07-28T22:27:52.403Z,7.60
2022-07-28T22:30:20.209Z,7.73
2022-07-28T22:32:48.060Z,7.33
2022-07-28T22:35:15.804Z,6.83
2022-07-28T22:37:44.656Z,7.00
2022-07-28T22:40:16.069Z,7.30
2022-07-28T22:42:44.154Z,6.47
2022-07-28T22:45:12.702Z,7.60
2022-07-28T22:47:40.454Z,7.80
2022-07-28T22:50:10.451Z,6.90
2022-07-28T22:52:38.563Z,7.03
2022-07-28T22:55:07.547Z,7.33
2022-07-28T22:57:36.649Z,7.40
2022-07-28T23:00:06.433Z,7.20
2022-07-28T23:02:35.578Z,8.00
2022-07-28T23:05:05.298Z,7.40
2022-07-28T23:07:51.256Z,7.87
2022-07-28T23:10:20.820Z,7.43
2022-07-28T23:12:49.880Z,7.83
2022-07-28T23:15:17.737Z,7.03
2022-07-28T23:17:45.410Z,7.40
2022-07-28T23:20:13.296Z,6.73
2022-07-28T23:22:41.083Z,6.70
2022-07-28T23:25:09.903Z,6.87
2022-07-28T23:27:37.694Z,7.47
2022-07-28T23:30:08.368Z,7.50
2022-07-28T23:32:36.098Z,6.97
2022-07-28T23:35:03.862Z,7.50
2022-07-28T23:37:34.306Z,7.40
2022-07-28T23:40:02.056Z,7.53
2022-07-28T23:42:29.838Z,7.60
2022-07-28T23:44:57.534Z,7.40
2022-07-28T23:47:26.767Z,7.10
2022-07-28T23:49:55.047Z,7.63
2022-07-28T23:52:22.827Z,6.93
2022-07-28T23:54:50.544Z,6.90
2022-07-28T23:57:18.246Z,6.80
2022-07-28T23:59:46.038Z,7.30
